METAR Data

Data at: 0953 UTC 23 Jul 2019

METAR for:KFOK (Westhampton/Gabreski, NY, US)
Text:KFOK 230945Z AUTO 00000KT 7SM BKN003 BKN027 BKN110 21/21 A2971 RMK AO2 RAE0858B31E41 P0000 T02110211
Temperature: 21.1°C ( 70°F)
Dewpoint: 21.1°C ( 70°F) [RH = 100%]
Pressure (altimeter):29.71 inches Hg (1006.2 mb)
Winds:calm
Visibility: 7 sm ( 11 km)
Ceiling:300 feet AGL
Clouds: broken clouds at 300 feet AGL, broken clouds at 2700 feet AGL, broken clouds at 11000 feet AGL
QC Flag:automated observation with no human augmentation